Buoy 41936

sailwx.info

Track history (hours):
 
Tides and Currents Weather Stations Pressure Air Temp Water Temp Dewpoint Dewpoint Depression Visibility Wind Speed Wind Dir Waves Ship Positions

Drifting buoy 41936

Last reported at 2015-Mar-04 15:00 UTC. Time now 2015-Mar-04 18:51 UTC.
Position N 37°10' W 065°23'.

Barometer 1019.0 mb
Water temperature 19.3 ° C

Date/timePositionNaut miles runAvg speedWind from/ knotsBaromVisibWave heightAir tempDewpointWater temp
2015-Mar-04 15:00N 37°10' W 065°23'0 0.0 1019.0 19.3
2015-Mar-04 14:00N 37°10' W 065°23'0 0.2 1019.5 19.3
2015-Mar-04 11:00N 37°10' W 065°23'1 0.6 1019.4 18.9
2015-Mar-04 10:00N 37°11' W 065°24'1 0.1 1019.8 19.3
2015-Mar-03 21:00N 37°10' W 065°24'1 0.7 1026.6 19.3
2015-Mar-03 20:00N 37°09' W 065°23'0 0.2 1026.4 19.3
2015-Mar-03 19:00N 37°09' W 065°23'0 0.1 1025.3 19.3
2015-Mar-03 16:00N 37°09' W 065°23'0 0.0 1026.0 19.3
2015-Mar-03 15:00N 37°09' W 065°23'1 0.9 1025.6 19.3
2015-Mar-03 14:00N 37°08' W 065°23'1 0.3 1025.3 19.3
2015-Mar-03 11:00N 37°08' W 065°23'1 0.9 1022.3 19.3
2015-Mar-03 10:00N 37°07' W 065°22'0 0.0 1021.5 19.2
2015-Mar-03 09:00N 37°07' W 065°22'2 0.9 1020.5 19.3
2015-Mar-03 07:00N 37°05' W 065°21'1 0.1 1019.1 19.2
2015-Mar-03 02:00N 37°06' W 065°22'1 0.8 1017.0 19.3
2015-Mar-03 01:00N 37°05' W 065°21'0 0.1 1016.0 19.2
2015-Mar-02 21:00N 37°05' W 065°21'0 0.3 1011.0 19.4
2015-Mar-02 20:00N 37°06' W 065°21'1 0.1 1010.0 19.4
2015-Mar-02 15:00N 37°05' W 065°21'1 1.1 1016.9 19.4
2015-Mar-02 14:00N 37°06' W 065°21'0 0.0 1018.0 19.4
2015-Mar-02 12:00N 37°06' W 065°21'0 0.0 1020.1 19.4
2015-Mar-02 11:00N 37°06' W 065°21'0 0.0 1020.5 19.4
2015-Mar-02 10:00N 37°06' W 065°21'1 0.5 1020.7 19.4
2015-Mar-02 08:00N 37°06' W 065°20'1 1.4 1023.4 19.4
2015-Mar-02 07:00N 37°05' W 065°19'1 0.1 1025.3 19.4
2015-Mar-02 02:00N 37°05' W 065°19'0 0.0 1030.1 19.4
2015-Mar-02 01:00N 37°05' W 065°19'2 1.7 1031.1 19.4
2015-Mar-02 00:00N 37°04' W 065°18'0 0.1 1032.3 19.4
2015-Mar-01 22:00N 37°04' W 065°18'1 0.7 1032.8 19.4
2015-Mar-01 20:00N 37°03' W 065°18'1 0.2 1032.8 19.5
2015-Mar-01 16:00N 37°02' W 065°18'0 0.4 1035.3 19.4
2015-Mar-01 15:00N 37°02' W 065°18'1 0.6 1035.8 19.5
2015-Mar-01 14:00N 37°02' W 065°17'0 0.0 1036.2 19.4
2015-Mar-01 13:00N 37°02' W 065°17'1 0.7 1036.1 19.4
2015-Mar-01 11:00N 37°04' W 065°16'0 0.2 1035.3 19.4
2015-Mar-01 09:00N 37°04' W 065°17'3 3.4 1034.7 19.4
2015-Mar-01 08:00N 37°01' W 065°16'3 3.4 1034.3 19.4
2015-Mar-01 07:00N 37°04' W 065°17'3 3.4 1034.5 19.4
2015-Mar-01 06:00N 37°01' W 065°16'2 0.3 1035.0 19.4
2015-Mar-01 01:00N 36°59' W 065°16'0 0.5 1035.9 19.4
2015-Mar-01 00:00N 36°59' W 065°16'0 0.1 1036.1 19.4
2015-Feb-28 22:00N 36°59' W 065°16'1 0.9 1034.6 19.5
2015-Feb-28 21:00N 36°60' W 065°15'0 0.0 1033.8 19.4
2015-Feb-28 20:00N 36°60' W 065°15'0 0.0 1033.7 19.5
2015-Feb-28 19:00N 36°60' W 065°15'1 0.4 1033.0 19.5
2015-Feb-28 17:00N 36°59' W 065°16'2 0.5 1033.2 19.5
2015-Feb-28 13:00N 36°57' W 065°15'2 0.8 1033.0 19.5
2015-Feb-28 11:00N 36°56' W 065°17'1 0.3 1030.9 19.5
2015-Feb-28 09:00N 36°56' W 065°17'1 1.2 1028.4 19.5
2015-Feb-28 08:00N 36°54' W 065°16'0 0.1 1027.2 19.6
2015-Feb-28 06:00N 36°54' W 065°16'0 0.0 1027.0 19.6
2015-Feb-28 05:00N 36°54' W 065°16'2 0.4 1026.3 19.6
2015-Feb-28 01:00N 36°56' W 065°15'2 1.1 1024.8 19.6
2015-Feb-27 23:00N 36°56' W 065°12'1 0.5 1023.3 19.6
2015-Feb-27 21:00N 36°57' W 065°11'2 0.6 1021.4 19.6
2015-Feb-27 18:00N 36°55' W 065°13'2 1.9 1019.4 19.7
2015-Feb-27 17:00N 36°53' W 065°13'1 0.6 1019.2 19.7
2015-Feb-27 15:00N 36°53' W 065°15'3 2.8 1018.1 19.7
2015-Feb-27 14:00N 36°50' W 065°15'0 0.0 1017.6 19.6
2015-Feb-27 11:00N 36°50' W 065°15'0 0.2 1013.5 19.6
2015-Feb-27 10:00N 36°50' W 065°15'2 0.8 1012.2 19.6
2015-Feb-27 08:00N 36°52' W 065°15'5 0.7 1009.7 19.7
2015-Feb-27 01:00N 36°54' W 065°09'1 0.3 1004.1 19.7
2015-Feb-26 20:00N 36°52' W 065°09'2 1.2 1003.2 19.6
2015-Feb-26 18:00N 36°50' W 065°11'0 0.0 1003.4 19.6
2015-Feb-26 16:00N 36°50' W 065°11'0 0.0 1006.2 19.6
2015-Feb-26 15:00N 36°50' W 065°11'3 0.9 1007.9 19.6
2015-Feb-26 12:00N 36°48' W 065°11'0 0.0 1012.9 19.7
2015-Feb-26 11:00N 36°48' W 065°11'1 0.8 1014.1 19.8
2015-Feb-26 10:00N 36°47' W 065°11'0 0.0 1014.5 19.8
2015-Feb-26 09:00N 36°47' W 065°11'1 1.0 1015.2 19.8
2015-Feb-26 08:00N 36°46' W 065°12'0 0.0 1014.1 19.8
2015-Feb-26 07:00N 36°46' W 065°12'1 0.3 1014.1 19.8
2015-Feb-26 02:00N 36°45' W 065°13'0 0.0 1013.8 19.8
2015-Feb-26 01:00N 36°45' W 065°13'0 0.2 1012.6 19.8
2015-Feb-26 00:00N 36°45' W 065°13'1 0.3 1011.2 19.8
2015-Feb-25 22:00N 36°45' W 065°12'0 0.0 1009.0 19.8
2015-Feb-25 21:00N 36°45' W 065°12'2 0.6 1007.6 19.8
2015-Feb-25 18:00N 36°43' W 065°13'0 0.0 1002.8 19.8
2015-Feb-25 17:00N 36°43' W 065°13'2 0.6 1000.8 19.8
2015-Feb-25 14:00N 36°41' W 065°11'2 0.5 1001.0 19.8
2015-Feb-25 10:00N 36°40' W 065°09'1 0.3 1006.6 19.8
2015-Feb-25 07:00N 36°39' W 065°08'0 0.0 1010.5 19.8
2015-Feb-25 06:00N 36°39' W 065°08'1 0.3 1011.7 19.8
2015-Feb-25 02:00N 36°38' W 065°08'0 0.0 1017.1 19.8
2015-Feb-25 01:00N 36°38' W 065°08'5 0.5 1018.6 19.8
2015-Feb-24 15:00N 36°34' W 065°04'0 0.4 1018.2 19.8
2015-Feb-24 14:00N 36°34' W 065°03'2 0.7 1018.2 19.8
2015-Feb-24 11:00N 36°32' W 065°02'3 2.8 1015.9 19.8
2015-Feb-24 10:00N 36°30' W 065°00'0 0.0 1015.0 19.9
2015-Feb-24 08:00N 36°30' W 065°00'0 0.0 1013.3 19.9
2015-Feb-24 07:00N 36°30' W 065°00'4 0.6 1012.6 19.9
2015-Feb-24 01:00N 36°28' W 064°57'1 0.5 1009.5 19.9
2015-Feb-23 23:00N 36°27' W 064°57'0 0.5 1010.5 19.9
2015-Feb-23 22:00N 36°27' W 064°56'2 2.3 1010.9 19.9
2015-Feb-23 21:00N 36°25' W 064°55'0 0.0 1011.5 19.9
2015-Feb-23 20:00N 36°25' W 064°55'0 0.0 1012.3 19.9
2015-Feb-23 18:00N 36°25' W 064°55'2 0.8 1014.3 19.9
2015-Feb-23 15:00N 36°23' W 064°53'3 3.4 1017.9 20.0
2015-Feb-23 14:00N 36°20' W 064°50'0 0.0 1018.9 19.9
2015-Feb-23 11:00N 36°20' W 064°50'2 1.0 1020.3 19.9
2015-Feb-23 09:00N 36°19' W 064°49'3 1.4 1021.3 19.9
2015-Feb-23 07:00N 36°16' W 064°47'3 2.9 1022.3 19.9
2015-Feb-23 06:00N 36°19' W 064°49'4 1.3 1023.1 19.8
2015-Feb-23 03:00N 36°16' W 064°45'0 0.0 1025.1 19.8
2015-Feb-23 02:00N 36°16' W 064°45'2 2.4 1025.8 19.8
2015-Feb-23 01:00N 36°14' W 064°43'1 0.3 1026.3 19.8
2015-Feb-22 21:00N 36°14' W 064°42'1 0.6 1026.6 19.8
2015-Feb-22 19:00N 36°13' W 064°41'2 0.8 1027.4 19.7
2015-Feb-22 16:00N 36°12' W 064°39'2 1.7 1030.3 19.7
2015-Feb-22 15:00N 36°11' W 064°36'   1030.9 19.7
Track history (hours):
 
Tides and Currents Weather Stations Pressure Air Temp Water Temp Dewpoint Dewpoint Depression Visibility Wind Speed Wind Dir Waves Ship Positions

Drifting buoy 41936

Last reported at 2015-Mar-04 15:00 UTC. Time now 2015-Mar-04 18:51 UTC.
Position N 37°10' W 065°23'.

Barometer 1019.0 mb
Water temperature 19.3 ° C

Date/timePositionNaut miles runAvg speedWind from/ knotsBaromVisibWave heightAir tempDewpointWater temp
2015-Mar-04 15:00N 37°10' W 065°23'0 0.0 1019.0 19.3
2015-Mar-04 14:00N 37°10' W 065°23'0 0.2 1019.5 19.3
2015-Mar-04 11:00N 37°10' W 065°23'1 0.6 1019.4 18.9
2015-Mar-04 10:00N 37°11' W 065°24'1 0.1 1019.8 19.3
2015-Mar-03 21:00N 37°10' W 065°24'1 0.7 1026.6 19.3
2015-Mar-03 20:00N 37°09' W 065°23'0 0.2 1026.4 19.3
2015-Mar-03 19:00N 37°09' W 065°23'0 0.1 1025.3 19.3
2015-Mar-03 16:00N 37°09' W 065°23'0 0.0 1026.0 19.3
2015-Mar-03 15:00N 37°09' W 065°23'1 0.9 1025.6 19.3
2015-Mar-03 14:00N 37°08' W 065°23'1 0.3 1025.3 19.3
2015-Mar-03 11:00N 37°08' W 065°23'1 0.9 1022.3 19.3
2015-Mar-03 10:00N 37°07' W 065°22'0 0.0 1021.5 19.2
2015-Mar-03 09:00N 37°07' W 065°22'2 0.9 1020.5 19.3
2015-Mar-03 07:00N 37°05' W 065°21'1 0.1 1019.1 19.2
2015-Mar-03 02:00N 37°06' W 065°22'1 0.8 1017.0 19.3
2015-Mar-03 01:00N 37°05' W 065°21'0 0.1 1016.0 19.2
2015-Mar-02 21:00N 37°05' W 065°21'0 0.3 1011.0 19.4
2015-Mar-02 20:00N 37°06' W 065°21'1 0.1 1010.0 19.4
2015-Mar-02 15:00N 37°05' W 065°21'1 1.1 1016.9 19.4
2015-Mar-02 14:00N 37°06' W 065°21'0 0.0 1018.0 19.4
2015-Mar-02 12:00N 37°06' W 065°21'0 0.0 1020.1 19.4
2015-Mar-02 11:00N 37°06' W 065°21'0 0.0 1020.5 19.4
2015-Mar-02 10:00N 37°06' W 065°21'1 0.5 1020.7 19.4
2015-Mar-02 08:00N 37°06' W 065°20'1 1.4 1023.4 19.4
2015-Mar-02 07:00N 37°05' W 065°19'1 0.1 1025.3 19.4
2015-Mar-02 02:00N 37°05' W 065°19'0 0.0 1030.1 19.4
2015-Mar-02 01:00N 37°05' W 065°19'2 1.7 1031.1 19.4
2015-Mar-02 00:00N 37°04' W 065°18'0 0.1 1032.3 19.4
2015-Mar-01 22:00N 37°04' W 065°18'1 0.7 1032.8 19.4
2015-Mar-01 20:00N 37°03' W 065°18'1 0.2 1032.8 19.5
2015-Mar-01 16:00N 37°02' W 065°18'0 0.4 1035.3 19.4
2015-Mar-01 15:00N 37°02' W 065°18'1 0.6 1035.8 19.5
2015-Mar-01 14:00N 37°02' W 065°17'0 0.0 1036.2 19.4
2015-Mar-01 13:00N 37°02' W 065°17'1 0.7 1036.1 19.4
2015-Mar-01 11:00N 37°04' W 065°16'0 0.2 1035.3 19.4
2015-Mar-01 09:00N 37°04' W 065°17'3 3.4 1034.7 19.4
2015-Mar-01 08:00N 37°01' W 065°16'3 3.4 1034.3 19.4
2015-Mar-01 07:00N 37°04' W 065°17'3 3.4 1034.5 19.4
2015-Mar-01 06:00N 37°01' W 065°16'2 0.3 1035.0 19.4
2015-Mar-01 01:00N 36°59' W 065°16'0 0.5 1035.9 19.4
2015-Mar-01 00:00N 36°59' W 065°16'0 0.1 1036.1 19.4
2015-Feb-28 22:00N 36°59' W 065°16'1 0.9 1034.6 19.5
2015-Feb-28 21:00N 36°60' W 065°15'0 0.0 1033.8 19.4
2015-Feb-28 20:00N 36°60' W 065°15'0 0.0 1033.7 19.5
2015-Feb-28 19:00N 36°60' W 065°15'1 0.4 1033.0 19.5
2015-Feb-28 17:00N 36°59' W 065°16'2 0.5 1033.2 19.5
2015-Feb-28 13:00N 36°57' W 065°15'2 0.8 1033.0 19.5
2015-Feb-28 11:00N 36°56' W 065°17'1 0.3 1030.9 19.5
2015-Feb-28 09:00N 36°56' W 065°17'1 1.2 1028.4 19.5
2015-Feb-28 08:00N 36°54' W 065°16'0 0.1 1027.2 19.6
2015-Feb-28 06:00N 36°54' W 065°16'0 0.0 1027.0 19.6
2015-Feb-28 05:00N 36°54' W 065°16'2 0.4 1026.3 19.6
2015-Feb-28 01:00N 36°56' W 065°15'2 1.1 1024.8 19.6
2015-Feb-27 23:00N 36°56' W 065°12'1 0.5 1023.3 19.6
2015-Feb-27 21:00N 36°57' W 065°11'2 0.6 1021.4 19.6
2015-Feb-27 18:00N 36°55' W 065°13'2 1.9 1019.4 19.7
2015-Feb-27 17:00N 36°53' W 065°13'1 0.6 1019.2 19.7
2015-Feb-27 15:00N 36°53' W 065°15'3 2.8 1018.1 19.7
2015-Feb-27 14:00N 36°50' W 065°15'0 0.0 1017.6 19.6
2015-Feb-27 11:00N 36°50' W 065°15'0 0.2 1013.5 19.6
2015-Feb-27 10:00N 36°50' W 065°15'2 0.8 1012.2 19.6
2015-Feb-27 08:00N 36°52' W 065°15'5 0.7 1009.7 19.7
2015-Feb-27 01:00N 36°54' W 065°09'1 0.3 1004.1 19.7
2015-Feb-26 20:00N 36°52' W 065°09'2 1.2 1003.2 19.6
2015-Feb-26 18:00N 36°50' W 065°11'0 0.0 1003.4 19.6
2015-Feb-26 16:00N 36°50' W 065°11'0 0.0 1006.2 19.6
2015-Feb-26 15:00N 36°50' W 065°11'3 0.9 1007.9 19.6
2015-Feb-26 12:00N 36°48' W 065°11'0 0.0 1012.9 19.7
2015-Feb-26 11:00N 36°48' W 065°11'1 0.8 1014.1 19.8
2015-Feb-26 10:00N 36°47' W 065°11'0 0.0 1014.5 19.8
2015-Feb-26 09:00N 36°47' W 065°11'1 1.0 1015.2 19.8
2015-Feb-26 08:00N 36°46' W 065°12'0 0.0 1014.1 19.8
2015-Feb-26 07:00N 36°46' W 065°12'1 0.3 1014.1 19.8
2015-Feb-26 02:00N 36°45' W 065°13'0 0.0 1013.8 19.8
2015-Feb-26 01:00N 36°45' W 065°13'0 0.2 1012.6 19.8
2015-Feb-26 00:00N 36°45' W 065°13'1 0.3 1011.2 19.8
2015-Feb-25 22:00N 36°45' W 065°12'0 0.0 1009.0 19.8
2015-Feb-25 21:00N 36°45' W 065°12'2 0.6 1007.6 19.8
2015-Feb-25 18:00N 36°43' W 065°13'0 0.0 1002.8 19.8
2015-Feb-25 17:00N 36°43' W 065°13'2 0.6 1000.8 19.8
2015-Feb-25 14:00N 36°41' W 065°11'2 0.5 1001.0 19.8
2015-Feb-25 10:00N 36°40' W 065°09'1 0.3 1006.6 19.8
2015-Feb-25 07:00N 36°39' W 065°08'0 0.0 1010.5 19.8
2015-Feb-25 06:00N 36°39' W 065°08'1 0.3 1011.7 19.8
2015-Feb-25 02:00N 36°38' W 065°08'0 0.0 1017.1 19.8
2015-Feb-25 01:00N 36°38' W 065°08'5 0.5 1018.6 19.8
2015-Feb-24 15:00N 36°34' W 065°04'0 0.4 1018.2 19.8
2015-Feb-24 14:00N 36°34' W 065°03'2 0.7 1018.2 19.8
2015-Feb-24 11:00N 36°32' W 065°02'3 2.8 1015.9 19.8
2015-Feb-24 10:00N 36°30' W 065°00'0 0.0 1015.0 19.9
2015-Feb-24 08:00N 36°30' W 065°00'0 0.0 1013.3 19.9
2015-Feb-24 07:00N 36°30' W 065°00'4 0.6 1012.6 19.9
2015-Feb-24 01:00N 36°28' W 064°57'1 0.5 1009.5 19.9
2015-Feb-23 23:00N 36°27' W 064°57'0 0.5 1010.5 19.9
2015-Feb-23 22:00N 36°27' W 064°56'2 2.3 1010.9 19.9
2015-Feb-23 21:00N 36°25' W 064°55'0 0.0 1011.5 19.9
2015-Feb-23 20:00N 36°25' W 064°55'0 0.0 1012.3 19.9
2015-Feb-23 18:00N 36°25' W 064°55'2 0.8 1014.3 19.9
2015-Feb-23 15:00N 36°23' W 064°53'3 3.4 1017.9 20.0
2015-Feb-23 14:00N 36°20' W 064°50'0 0.0 1018.9 19.9
2015-Feb-23 11:00N 36°20' W 064°50'2 1.0 1020.3 19.9
2015-Feb-23 09:00N 36°19' W 064°49'3 1.4 1021.3 19.9
2015-Feb-23 07:00N 36°16' W 064°47'3 2.9 1022.3 19.9
2015-Feb-23 06:00N 36°19' W 064°49'4 1.3 1023.1 19.8
2015-Feb-23 03:00N 36°16' W 064°45'0 0.0 1025.1 19.8
2015-Feb-23 02:00N 36°16' W 064°45'2 2.4 1025.8 19.8
2015-Feb-23 01:00N 36°14' W 064°43'1 0.3 1026.3 19.8
2015-Feb-22 21:00N 36°14' W 064°42'1 0.6 1026.6 19.8
2015-Feb-22 19:00N 36°13' W 064°41'2 0.8 1027.4 19.7
2015-Feb-22 16:00N 36°12' W 064°39'2 1.7 1030.3 19.7
2015-Feb-22 15:00N 36°11' W 064°36'   1030.9 19.7

Dump ship's entire track history